x

8454049 - Quonset Point, Ri (qptr1) Weather Station

3:54 - Thu 25th Dec 2014 All times are EST. -5 hours from GMT.

  • Wind
    20mph, 22mph gusts
  • Sea Temp 45°f
  • Aire Temp 56°f
  • Sea Pressure 999.6mb
  • 8454049 - Quonset Point, Ri
  • 8454049 - Quonset Point, Ri

More Historic Weather Station data

Upgrade to MSW Pro to gain access to the past 30 days of data for over 8000 Wavebouys and Weather Stations around the globe.

Join Pro

Comparision Forecast

View Surf forecast
   
jue 12/25 3:54 20 22 mph 999.6mb 45f 56f
3:48 21 25 mph 999.7mb 45f 57f
3:42 22 28 mph 999.8mb 45f 57f
3:36 22 28 mph 999.8mb 45f 57f
3:30 24 30 mph 1000mb 45f 58f
3:24 25 29 mph 1000.1mb 45f 58f
3:18 28 32 mph 1000.1mb 45f 58f
3:12 23 30 mph 1000.2mb 45f 57f
3:06 28 37 mph 1000.3mb 45f 58f
3:00 23 32 mph 1000.2mb 45f 58f
2:54 24 32 mph 1000.3mb 45f 57f
2:48 24 33 mph 1000.4mb 45f 57f
2:42 26 31 mph 1000.6mb 45f 57f
2:36 25 33 mph 1000.5mb 45f 58f
2:30 21 26 mph 1000.6mb 45f 57f
2:24 22 26 mph 1000.7mb 45f 58f
2:18 23 29 mph 1000.7mb 45f 58f
2:12 22 29 mph 1001.1mb 45f 58f
2:06 24 31 mph 1000.9mb 45f 57f
2:00 23 28 mph 1000.8mb 44f 58f
1:54 21 26 mph 1000.8mb 44f 57f
1:48 23 26 mph 1000.8mb 44f 58f
1:42 23 28 mph 1001mb 44f 57f
1:36 20 25 mph 1001.1mb 44f 57f
1:30 20 24 mph 1001mb 44f 56f
1:24 23 26 mph 1001mb 44f 57f
1:18 25 31 mph 1000.8mb 44f 57f
1:12 24 31 mph 1000.7mb 44f 57f
1:06 23 30 mph 1000.5mb 44f 58f
1:00 25 29 mph 1000.4mb 44f 58f
12:54 24 32 mph 1000.3mb 44f 58f
12:48 28 37 mph 1000.5mb 44f 57f
12:42 29 37 mph 1000.7mb 44f 57f
12:36 28 34 mph 1000.9mb 44f 58f
12:30 32 40 mph 1000.6mb 44f 58f
12:24 31 39 mph 1000.7mb 44f 58f
12:18 30 37 mph 1000.6mb 44f 58f
12:12 30 39 mph 1000.6mb 44f 58f
12:06 28 37 mph 1000.6mb 44f 59f
12:00 22 31 mph 1001.1mb 44f 59f
mié 12/24 11:54 25 32 mph 1001.2mb 44f 59f
11:48 26 40 mph 1001.1mb 44f 59f
11:42 26 39 mph 1001mb 44f 59f
11:36 24 36 mph 1001.3mb 44f 59f
11:30 32 40 mph 1001.5mb 44f 60f
11:24  -  mph - 44f -
11:18 28 37 mph 1001.4mb 44f 58f
11:12 31 37 mph 1001.5mb 44f 59f
11:06 32 39 mph 1001.6mb 44f 60f
11:00  -  mph - 44f -
10:54 22 26 mph 1001.6mb 44f 58f
10:48 24 31 mph 1001.6mb 44f 56f
10:42 29 33 mph 1001.6mb 44f 58f
10:36 23 26 mph 1001.9mb 44f 56f
10:30 24 30 mph 1001.9mb 44f 55f
10:24 24 29 mph 1002.1mb 44f 55f
10:18 24 26 mph 1002.3mb 44f 55f
10:12 23 29 mph 1002.4mb 44f 54f
10:06 25 28 mph 1002.5mb 44f 55f
10:00 26 28 mph 1002.7mb 44f 54f
9:54 23 28 mph 1002.9mb 44f 54f
9:48 25 30 mph 1003.1mb 44f 55f
9:42 26 30 mph 1003mb 44f 55f
9:36 23 26 mph 1003mb 44f 54f
9:30 23 25 mph 1003.1mb 44f 53f
9:24 24 26 mph 1003.1mb 44f 54f
9:18 22 24 mph 1003.2mb 44f 53f
9:12 22 24 mph 1003.5mb 44f 53f
9:06 22 23 mph 1003.7mb 44f 52f
9:00 22 24 mph 1003.8mb 44f -
8:54 22 24 mph 1003.9mb 44f -
8:48 23 25 mph 1004.1mb 43f 53f
8:42 21 23 mph 1004.2mb 43f 53f
8:36 22 23 mph 1004.4mb 43f 53f
8:30 18 22 mph 1004.6mb 43f 53f
8:24 20 22 mph 1004.8mb 43f 53f
8:18 18 22 mph 1004.9mb 43f 53f
8:12 20 22 mph 1005mb 43f 53f
8:06 18 22 mph 1005.2mb 43f 54f
8:00 18 23 mph 1005.4mb 43f 55f
7:54 16 24 mph 1005.6mb 43f 55f
7:48 17 22 mph 1005.8mb 43f 55f
7:42 16 24 mph 1005.8mb 43f 55f
7:36 21 25 mph 1005.7mb 43f 58f
7:30 21 24 mph 1005.8mb 43f 58f
7:24 17 22 mph 1006mb 43f 57f
7:18 15 25 mph 1006.2mb 43f 53f
7:12 24 29 mph 1006mb 43f 58f
7:06 26 29 mph 1006.1mb 43f 59f
7:00 23 28 mph 1006.1mb 43f 59f
6:54 21 29 mph 1006.2mb 43f 58f
6:48 17 24 mph 1006.4mb 43f 57f
6:42 7 10 mph 1006.6mb 43f 55f
6:36 1 3 mph 1006.7mb 43f 53f
6:30  -  2 mph 1006.9mb 43f 52f
6:24 1 2 mph 1006.9mb 43f 51f
6:18  -  3 mph 1007mb 43f 51f
6:12 2 6 mph 1007.1mb 43f 52f
6:06 6 8 mph 1007.1mb 43f 53f
6:00 3 5 mph 1007.2mb 43f 50f
5:54 3 7 mph 1007.2mb 43f 49f
5:48 7
mph
1007.2mb 43f 49f
5:42 6 7 mph 1007.2mb 43f 49f
5:36 6 7 mph 1007.1mb 43f 49f
5:30 5 7 mph 1007.1mb 43f 49f
5:24 7 8 mph 1007.2mb 43f 49f
5:18 6 7 mph 1007.4mb 43f 49f
5:12 6 9 mph 1007.5mb 43f 48f
5:06 7 9 mph 1007.4mb 43f 48f
5:00 7 9 mph 1007.5mb 43f 48f
4:54 8 9 mph 1007.5mb 43f 49f
4:48 7 9 mph 1007.7mb 43f 48f
4:42 7 9 mph 1008mb 43f 48f
4:36 7 9 mph 1008mb 43f 48f
4:30 7 9 mph 1008.1mb 43f 48f
4:24 7 8 mph 1008.2mb 43f 48f
4:18 6 7 mph 1008.5mb 43f 48f
4:12 7
mph
1008.7mb 43f 48f
4:06 6 8 mph 1008.8mb 43f 48f
4:00 6 9 mph 1008.8mb 43f 48f
3:54 7 9 mph 1008.9mb 43f 48f
3:48 6 7 mph 1009.2mb 43f 48f
3:42 6 7 mph 1009.4mb 43f 48f
3:36 6 7 mph 1009.5mb 43f 47f
3:30 7 8 mph 1009.4mb 43f 47f
3:24 6 7 mph 1009.5mb 43f 47f
3:18 7 8 mph 1009.6mb 43f 47f
3:12 6
mph
1009.8mb 43f 47f
3:06 5
mph
1010mb 43f 47f
3:00 3 6 mph 1010.3mb 43f 47f
2:54 5 7 mph 1010.2mb 43f 47f
2:48 7
mph
1010.1mb 43f 47f
2:42 6 7 mph 1010.3mb 43f 47f
2:36 6 7 mph 1010.4mb 43f 47f
2:30 5
mph
1010.7mb 43f 47f
2:24 3 5 mph 1010.7mb 43f 47f
2:18 5 7 mph 1010.8mb 43f 47f
2:12 6 8 mph 1010.7mb 43f 47f
2:06 7 8 mph 1010.7mb 43f 47f
2:00 7 8 mph 1010.8mb 43f 47f
1:54 8 9 mph 1010.8mb 43f 47f
1:48 7 8 mph 1010.9mb 43f 47f
1:42 8 9 mph 1011mb 43f 47f
1:36 8 9 mph 1011.2mb 43f 47f
1:30 8 9 mph 1011.3mb 43f 47f
1:24 7 9 mph 1011.6mb 43f 47f
1:18 7 9 mph 1011.8mb 43f 47f
1:12 7 9 mph 1011.9mb 43f 47f
1:06 7 8 mph 1012mb 43f 47f
1:00 7 9 mph 1012.1mb 43f 47f
12:54 7 9 mph 1012.2mb 43f 47f
12:48 8 9 mph 1012.2mb 43f 47f
12:42 7 8 mph 1012.5mb 43f 47f
12:36 7 8 mph 1012.7mb 43f 47f
12:30 6 8 mph 1012.9mb 43f 47f
12:24 7 8 mph 1013mb 43f 47f
12:18 7 9 mph 1013.1mb 43f 47f
12:12 8 9 mph 1013.1mb 43f 46f
12:06 7 8 mph 1013.2mb 43f 46f
12:00 8 9 mph 1013.4mb 43f 46f
11:54 7 8 mph 1013.6mb 43f 46f
11:48 8 9 mph 1013.8mb 43f 46f
11:42 8 10 mph 1013.8mb 43f 46f
11:36 8 10 mph 1014mb 43f 46f
11:30 9 11 mph 1014.2mb 43f 46f
11:24 8 10 mph 1014.6mb 43f 46f
11:18 8 9 mph 1014.6mb 43f 46f
11:12 8 9 mph 1014.8mb 43f 46f
11:06 7 9 mph 1014.9mb 43f 46f
11:00 8 11 mph 1015.1mb 43f 46f
10:54 7 10 mph 1015.1mb 43f 46f
10:48 8 10 mph 1015.2mb 43f 46f
10:42 8 9 mph 1015.3mb 43f 46f
10:36 9 10 mph 1015.5mb 43f 46f
10:30 9 13 mph 1015.7mb 43f 46f
10:24 10 11 mph 1015.6mb 43f 45f
10:18 9 13 mph 1015.7mb 43f 45f
10:12 11 14 mph 1015.6mb 43f 45f
10:06 9 11 mph 1015.7mb 43f 45f
10:00 9 14 mph 1015.9mb 43f 45f
9:54 11 13 mph 1015.8mb 43f 45f
9:48 10 11 mph 1016.1mb 43f 45f
9:42 9 11 mph 1016.1mb 43f 45f
9:36 10 13 mph 1016.1mb 43f 44f
9:30 10 11 mph 1016.1mb 43f 44f
9:24 9 10 mph 1016.4mb 43f 44f
9:18 8 9 mph 1016.5mb 43f 44f
9:12 8 9 mph 1016.7mb 43f 44f
9:06 8 9 mph 1016.7mb 43f 44f
9:00 8 10 mph 1016.7mb 43f 44f
8:54 9 11 mph 1016.6mb 43f 44f
8:48 8 9 mph 1016.8mb 43f 44f
8:42 8 10 mph 1016.8mb 43f 44f
8:36 8 10 mph 1016.8mb 43f 44f
8:30 8 10 mph 1016.8mb 43f 44f
8:24 8 10 mph 1016.9mb 43f 44f
8:18 9 10 mph 1016.8mb 43f 44f
8:12 8 10 mph 1016.9mb 43f 44f
8:06 8 10 mph 1017mb 43f 44f
8:00 8 10 mph 1017.1mb 43f 44f
7:54 7 10 mph 1017.2mb 43f 44f
7:48 7 9 mph 1017.3mb 43f 44f
7:42 8 11 mph 1017.3mb 43f 44f
7:36 10 11 mph 1017.2mb 43f 44f
7:30 10 13 mph 1017.3mb 43f 44f
7:24 11 14 mph 1017.2mb 43f 44f
7:18 10 13 mph 1017.2mb 43f 44f
7:12 9 11 mph 1017.5mb 43f 44f
7:06 9 11 mph 1017.6mb 43f 43f
7:00 9 11 mph 1017.8mb 43f 43f
6:54 9 14 mph 1017.8mb 43f 43f
6:48 11 14 mph 1017.5mb 43f 43f
6:42 11 14 mph 1017.5mb 43f 43f
6:36 13 15 mph 1017.7mb 43f 43f
6:30 13 15 mph 1017.6mb 43f 43f
6:24 13 15 mph 1017.5mb 43f 43f
6:18 13 15 mph 1017.6mb 43f 43f
6:12 13 15 mph 1017.4mb 43f 43f
6:06 11 14 mph 1017.6mb 43f 43f
6:00 9 13 mph 1017.9mb 43f 43f
5:54 9 14 mph 1017.8mb 43f 43f
5:48 10 15 mph 1017.7mb 43f 43f
5:42 10 13 mph 1017.9mb 43f 43f
5:36 10 13 mph 1017.9mb 43f 43f
5:30 9 15 mph 1017.7mb 43f 43f
5:24 11 15 mph 1017.3mb 43f 43f
5:18 13 14 mph 1017.4mb 43f 43f
5:12 9 11 mph 1017.7mb 43f 43f
5:06 8 13 mph 1017.8mb 43f 43f
5:00 11 14 mph 1017.2mb 43f 43f
4:54 10 13 mph 1017.3mb 43f 43f
4:48 10 13 mph 1017.2mb 43f 43f
4:42 13 15 mph 1017.2mb 43f 43f
4:36 11 14 mph 1017.3mb 43f 43f
4:30 11 17 mph 1017.2mb 43f 43f
4:24 14 16 mph 1017.3mb 43f 43f
4:18 11 15 mph 1017.3mb 43f 43f
4:12 13 17 mph 1017.3mb 43f 43f
4:06 13 17 mph 1017.7mb 43f 43f
4:00 11 14 mph 1017.7mb 43f 43f
3:54 10 14 mph 1018.1mb 43f 43f
3:48 10 16 mph 1018.1mb 43f 43f
3:42 13 15 mph 1018mb 43f 43f
3:36 11 15 mph 1018.4mb 43f 43f
3:30 10 14 mph 1018.3mb 43f 43f
3:24 10 14 mph 1018.3mb 43f 44f
3:18 11 14 mph 1018.3mb 43f 44f
3:12 13 15 mph 1018.3mb 43f 44f
3:06 13 16 mph 1018.3mb 43f 44f
3:00 13 16 mph 1018.3mb 43f 44f
2:54 15 17 mph 1018.2mb 43f 44f
2:48 15 17 mph 1017.9mb 43f 44f
2:42 13 17 mph 1018mb 43f 44f
2:36 14 17 mph 1018mb 43f 45f
2:30 14 16 mph 1018.2mb 43f 45f
2:24 13 15 mph 1018.2mb 43f 45f
2:18 11 14 mph 1018.3mb 43f 45f
2:12 11 13 mph 1018.4mb 43f 46f
2:06 10 13 mph 1018.5mb 43f 46f
2:00 9 13 mph 1018.7mb 43f 46f
1:54 10 11 mph 1018.5mb 43f 46f
1:48 9 11 mph 1018.5mb 43f 47f
1:42 9 11 mph 1018.5mb 43f 46f
1:36 10 13 mph 1018.5mb 43f 46f
1:30 10 13 mph 1018.5mb 43f 46f
1:24 10 11 mph 1018.4mb 43f 46f
1:18 10 13 mph 1018.2mb 43f 46f
1:12 11 13 mph 1018mb 43f 46f
1:06 11 13 mph 1018mb 43f 46f
1:00 11 13 mph 1018.2mb 43f 46f
12:54 11 14 mph 1018.2mb 43f 46f
12:48 11 14 mph 1018.3mb 43f 46f
12:42 11 15 mph 1018.4mb 43f 46f
12:30 14 16 mph 1018.5mb 43f 46f
12:24 13 15 mph 1018.6mb 43f 46f
12:18 14 16 mph 1018.7mb 43f 46f
12:12 14 16 mph 1018.8mb 43f 46f
12:06 13 16 mph 1018.8mb 43f 46f
12:00 14 16 mph 1018.7mb 43f 46f
mar 12/23 11:54 13 15 mph 1018.8mb 43f 46f
11:48 13 15 mph 1018.7mb 43f 46f
11:42 13 15 mph 1018.7mb 43f 46f
11:36 13 14 mph 1018.8mb 43f 46f
11:30 13 14 mph 1018.9mb 43f 46f
11:24 11 14 mph 1019.1mb 43f 46f
11:18 11 14 mph 1019.1mb 43f 46f
11:12 11 13 mph 1019.2mb 43f 46f
11:06 11 13 mph 1019.5mb 43f 46f
11:00 10 11 mph 1019.5mb 43f 46f
10:54 10 11 mph 1019.6mb 43f 47f
10:48 9 11 mph 1019.6mb 43f 47f
10:42 9 11 mph 1019.7mb 43f 47f
10:36 10 13 mph 1019.7mb 43f 47f
10:30 10 14 mph 1019.6mb 43f 46f
10:24 11 14 mph 1019.4mb 43f 46f
10:18 13 14 mph 1019.3mb 43f 46f
10:12 11 14 mph 1019.3mb 43f 46f
10:06 9 11 mph 1019.3mb 43f 46f
10:00 10 13 mph 1019.4mb 43f 46f
9:54 11 14 mph 1019.5mb 43f 46f
9:48 11 13 mph 1019.6mb 43f 46f
9:42 11 14 mph 1019.5mb 43f 46f
9:36 13 14 mph 1019.6mb 43f 46f
9:30 10 13 mph 1019.6mb 43f 46f
9:24 10 14 mph 1019.6mb 43f 46f
9:18 11 14 mph 1019.8mb 43f 46f
9:12 11 14 mph 1019.7mb 42f 46f
9:06 11 14 mph 1019.9mb 42f 46f
9:00 10 14 mph 1019.9mb 42f 46f
8:54 13 15 mph 1019.8mb 42f 46f
8:48 11 14 mph 1019.9mb 42f 46f
8:42 11 15 mph 1020mb 42f 46f
8:36 14 16 mph 1019.8mb 42f 46f
8:30 14 16 mph 1019.7mb 42f 46f
8:24 14 16 mph 1019.6mb 42f 46f
8:18 14 16 mph 1019.4mb 42f 46f
8:12 14 16 mph 1019.4mb 42f 46f
8:06 14 16 mph 1019.4mb 42f 46f
8:00 13 16 mph 1019.3mb 42f 46f
7:54 14 16 mph 1019.3mb 42f 46f
7:48 14 17 mph 1019.4mb 42f 46f
7:42 14 16 mph 1019.6mb 42f 46f
7:36 14 16 mph 1019.5mb 42f 46f
7:30 14 15 mph 1019.4mb 42f 46f
7:24 14 17 mph 1019.3mb 42f 46f
7:18 15 17 mph 1019.3mb 42f 46f
7:12 14 16 mph 1019.4mb 42f 46f
7:06 13 15 mph 1019.5mb 42f 46f
7:00 14 16 mph 1019.5mb 42f 45f
6:54 14 16 mph 1019.5mb 42f 45f
6:48 11 15 mph 1019.6mb 42f 45f
6:42 14 16 mph 1019.8mb 42f 46f
6:36 14 16 mph 1019.8mb 42f 46f
6:30 14 17 mph 1019.9mb 42f 46f
6:24 14 17 mph 1020mb 42f 46f
6:18 14 18 mph 1019.9mb 42f 46f
6:12 14 16 mph 1019.9mb 42f 46f
6:06 13 16 mph 1019.8mb 42f 46f
6:00 14 16 mph 1019.6mb 42f 46f
5:54 14 16 mph 1019.6mb 42f 46f
5:48 13 15 mph 1019.7mb 42f 46f
5:42 13 15 mph 1019.7mb 42f 46f
5:36 11 15 mph 1019.6mb 42f 46f
5:30 14 16 mph 1019.5mb 42f 46f
5:24 14 16 mph 1019.5mb 42f 46f
5:18 13 15 mph 1019.5mb 42f 46f
5:12 11 14 mph 1019.4mb 42f 46f
5:06 13 14 mph 1019.5mb 42f 46f
5:00 11 15 mph 1019.5mb 42f 46f
4:54 13 14 mph 1019.7mb 42f 46f
4:48 14 15 mph 1019.8mb 42f 46f
4:42 14 15 mph 1019.7mb 42f 46f
4:36 13 14 mph 1019.7mb 42f 45f
4:30 11 14 mph 1019.6mb 42f 45f
4:24 10 14 mph 1019.6mb 42f 45f
4:18 11 14 mph 1019.5mb 42f 45f
4:12 11 14 mph 1019.5mb 42f 45f
4:06 13 14 mph 1019.4mb 42f 45f
4:00 13 14 mph 1019.3mb 42f 45f
3:54 11 14 mph 1019.4mb 42f 45f
3:48 13 14 mph 1019.5mb 42f 45f
3:42 11 14 mph 1019.7mb 42f 45f
3:36 11 16 mph 1019.8mb 42f 45f
3:30 13 14 mph 1019.8mb 42f 45f
3:24 14 16 mph 1019.8mb 42f 45f
3:18 13 15 mph 1019.9mb 42f 45f
3:12 13 15 mph 1019.9mb 42f 45f
3:06 13 16 mph 1019.9mb 42f 45f
3:00 13 15 mph 1019.7mb 42f 45f
2:54 13 14 mph 1019.8mb 42f 45f
2:48 11 14 mph 1019.9mb 42f 45f
2:42 13 15 mph 1019.6mb 42f 45f
2:36 14 15 mph 1019.7mb 42f 46f
2:30 11 15 mph 1019.7mb 42f 46f
2:24 14 16 mph 1019.5mb 42f 46f
2:18 14 17 mph 1019.3mb 42f 46f
2:12 14 15 mph 1019.3mb 42f 45f
2:06 14 15 mph 1019.5mb 42f 45f
2:00 13 15 mph 1019.4mb 42f 45f
1:54 14 15 mph 1019.4mb 42f 45f
1:48 13 14 mph 1019.5mb 42f 45f
1:42 11 14 mph 1019.6mb 42f 45f
1:36 11 13 mph 1019.7mb 42f 45f
1:30 13 15 mph 1019.6mb 42f 45f
1:24 11 14 mph 1019.6mb 42f 45f
1:18 11 14 mph 1019.6mb 42f 45f
1:12 14 15 mph 1019.5mb 42f 45f
1:06 14 15 mph 1019.6mb 42f 45f
1:00 13 15 mph 1019.8mb 42f 45f
12:54 13 15 mph 1019.8mb 42f 45f
12:48 11 14 mph 1020.1mb 42f 45f
12:42 13 15 mph 1020.1mb 42f 45f
12:36 14 15 mph 1019.9mb 42f 45f
12:30 11 13 mph 1020.2mb 42f 45f
12:24 11 15 mph 1020.1mb 42f 45f
12:18 13 15 mph 1020mb 42f 45f
12:12 14 16 mph 1020.1mb 42f 45f
12:06 13 14 mph 1020.3mb 42f 45f
12:00 11 13 mph 1020.6mb 42f 45f
11:54 11 13 mph 1020.8mb 42f 45f
11:48 10 13 mph 1020.8mb 42f 45f
11:42 11 13 mph 1020.9mb 42f 45f
11:36 11 14 mph 1020.9mb 42f 45f
11:30 13 15 mph 1021mb 42f 45f
11:24 14 16 mph 1021.1mb 42f 45f
11:18 14 15 mph 1021.2mb 42f 45f
11:12 15 17 mph 1021.3mb 42f 45f
11:06 14 16 mph 1021.3mb 42f 45f
11:00 15 16 mph 1021.4mb 42f 45f
10:54 14 15 mph 1021.6mb 42f 45f
10:48 13 16 mph 1021.8mb 42f 45f
10:42 14 17 mph 1021.7mb 42f 45f
10:36 14 16 mph 1021.8mb 42f 45f
10:30 15 17 mph 1021.9mb 42f 45f
10:24 14 15 mph 1022.2mb 42f 45f
10:18 14 16 mph 1022.2mb 42f 45f
10:12 15 17 mph 1022.2mb 42f 45f
10:06 14 16 mph 1022.4mb 42f 45f
10:00 11 14 mph 1022.6mb 42f 45f
9:54 11 14 mph 1022.7mb 42f 45f
9:48 13 15 mph 1022.6mb 42f 45f
9:42 13 15 mph 1022.6mb 42f 44f
9:36 13 14 mph 1022.6mb 42f 44f
9:30 13 14 mph 1022.6mb 42f 44f
9:24 13 14 mph 1022.8mb 42f 45f
9:18 11 13 mph 1022.9mb 42f 44f
9:12 11 13 mph 1022.9mb 42f 44f
9:06 13 15 mph 1022.8mb 42f 44f
9:00 11 14 mph 1022.9mb 42f 44f
8:54 10 13 mph 1023mb 42f 44f
8:48 11 13 mph 1023mb 42f 44f
8:42 10 13 mph 1023mb 42f 44f
8:36 11 15 mph 1022.9mb 42f 44f
8:30 13 15 mph 1022.9mb 42f 44f
8:24 13 16 mph 1022.9mb 42f 44f
8:18  -  mph - 42f -
8:12 11 14 mph 1023mb 42f 44f
8:06 10 13 mph 1023.1mb 42f 44f
8:00 10 13 mph 1023mb 42f 44f
7:54 10 14 mph 1023mb 42f 44f
7:48 11 14 mph 1022.9mb 42f 44f
7:42 11 13 mph 1023mb 42f 44f
7:36  -  mph - 42f -
7:30 11 13 mph 1022.9mb 42f 43f
7:24 9 11 mph 1023.2mb 42f 43f
7:18 10 13 mph 1023.2mb 42f 43f
7:12 9 11 mph 1023.2mb 42f 43f
7:06 8 10 mph 1023.4mb 42f 43f
7:00 9 10 mph 1023.4mb 42f 42f
6:54 8 10 mph 1023.5mb 42f 42f
6:48 8 11 mph 1023.5mb 42f 42f
6:42 9 13 mph 1023.2mb 42f 42f
6:36 9 13 mph 1023.1mb 42f 42f
6:30 9 13 mph 1023.1mb 42f 42f
6:24 11 15 mph 1023.1mb 42f 42f
6:18 14 15 mph 1022.9mb 42f 42f
6:12 10 13 mph 1023mb 42f 42f
6:06 9 11 mph 1023.3mb 42f 42f
6:00 10 13 mph 1023.4mb 42f 42f
5:54 10 13 mph 1023.3mb 42f 42f
5:48 11 15 mph 1023.3mb 42f 42f
5:42 13 15 mph 1023.1mb 42f 42f
5:36 11 14 mph 1023.3mb 42f 42f
5:30 10 11 mph 1023.4mb 42f 42f
5:24 9 10 mph 1023.3mb 42f 42f
5:18 7 8 mph 1023.7mb 42f 42f
5:12 6 7 mph 1023.5mb 42f 42f
5:06 6 7 mph 1023.2mb 42f 42f
5:00 5 7 mph 1023.7mb 42f 42f
4:54 7 8 mph 1023.7mb 42f 42f
4:48 7 8 mph 1023.5mb 42f 42f
4:42 5 7 mph 1023.3mb 42f 43f
4:36 7 8 mph 1023.3mb 42f 43f
4:30 5 7 mph 1023.5mb 42f 43f
4:24 5 7 mph 1023.1mb 42f 43f
4:18 7 10 mph 1022.5mb 42f 43f
4:12 8 10 mph 1022.2mb 42f 43f
4:06 9 14 mph 1022.4mb 42f 43f
4:00 11 14 mph 1022.3mb 42f 43f
3:54 10 13 mph 1022.7mb 42f 43f
3:48 9 10 mph 1022.8mb 42f 43f
3:42 9 14 mph 1023.2mb 42f 43f
3:36 13 14 mph 1022.5mb 42f 43f
3:30 13 14 mph 1022.3mb 42f 43f
3:24 13 14 mph 1022.6mb 42f 43f
3:18 10 11 mph 1023mb 42f 43f
3:12 10 11 mph 1023.4mb 42f 43f
3:06 10 11 mph 1023.4mb 42f 43f
3:00 8 9 mph 1023.5mb 42f 43f
2:54  -  mph - 42f -
2:48 9 11 mph 1023.6mb 42f 43f
2:42 10 14 mph 1023.5mb 42f 43f
2:36 13 14 mph 1023.1mb 42f 43f
2:30 11 13 mph 1023.3mb 42f 43f
2:24 11 13 mph 1023.5mb 42f 43f
2:18 10 13 mph 1023.7mb 42f 43f
2:12 9 11 mph 1023.8mb 42f 43f
2:06 9 11 mph 1023.8mb 42f 43f
2:00 10 13 mph 1023.7mb 42f 43f
1:54 11 13 mph 1023.7mb 42f 43f
1:48 10 14 mph 1023.7mb 42f 43f
1:42 11 14 mph 1023.5mb 42f 43f
1:36 11 13 mph 1023.5mb 42f 43f
1:30 10 13 mph 1023.6mb 42f 43f
1:24 9 11 mph 1023.8mb 42f 43f
1:12 9
mph
1023.9mb 42f 43f
1:06 8 9 mph 1024mb 42f 43f
1:00 8 10 mph 1024mb 42f 43f
12:54  -  mph - 42f -
12:48 8 9 mph 1024.3mb 42f 43f
12:42 6 7 mph 1024.4mb 42f 43f
12:18 8 11 mph 1024mb 42f 43f
12:12 9 11 mph 1023.9mb 42f 43f
12:06 10 11 mph 1024.1mb 42f 43f
12:00 9 10 mph 1024.3mb 42f 43f
lun 12/22 11:54 8 11 mph 1024.2mb 42f 43f
11:48 8 11 mph 1024.1mb 42f 43f
11:42 10 11 mph 1024.1mb 42f 43f
11:36 10 13 mph 1024.2mb 42f 43f
11:30 8 9 mph 1024.4mb 42f 43f
11:24 8 10 mph 1024.6mb 42f 43f
11:18 9 11 mph 1024.7mb 42f 43f
11:12 11 14 mph 1024.7mb 42f 43f
11:06 10 13 mph 1024.7mb 42f 43f
11:00 9 10 mph 1025mb 42f 43f
10:54 9 13 mph 1025.1mb 42f 43f
10:48 11 14 mph 1024.9mb 42f 43f
10:42 10 11 mph 1024.9mb 42f 43f
10:36 10 13 mph 1025mb 42f 43f
10:30 10 14 mph 1025.1mb 42f 43f
10:24 11 16 mph 1025.1mb 42f 43f
10:18 11 14 mph 1025.1mb 42f 43f
10:12 13 14 mph 1025.2mb 42f 44f
10:06 9 11 mph 1025.3mb 42f 44f
10:00 9 10 mph 1025.5mb 42f 44f
9:54 8 10 mph 1025.5mb 42f 44f
9:48 9 11 mph 1025.4mb 42f 43f
9:42 10 11 mph 1025.2mb 42f 44f
9:36 9 11 mph 1025.4mb 42f 44f
9:30 9 11 mph 1025.5mb 42f 44f
9:24 9 11 mph 1025.6mb 42f 44f
9:18 8 11 mph 1025.6mb 42f 44f
9:12 10 14 mph 1025.4mb 42f 44f
9:06 10 13 mph 1025.2mb 42f 44f
9:00 10 13 mph 1025.4mb 42f 44f
8:54 11 14 mph 1025.4mb 42f 44f
8:48 10 11 mph 1025.5mb 42f 44f
8:42 9 11 mph 1025.5mb 42f 44f
8:36 9 11 mph 1025.5mb 42f 44f
8:30 9 10 mph 1025.6mb 42f 44f
8:24 8 9 mph 1025.7mb 42f 44f
8:18 8 10 mph 1025.7mb 42f 44f
8:12 9 11 mph 1025.7mb 42f 44f
8:06 10 11 mph 1025.7mb 42f 44f
8:00 8 11 mph 1025.8mb 42f 44f
7:54 9 10 mph 1025.8mb 42f 44f
7:48 8 13 mph 1025.8mb 42f 44f
7:42 9 11 mph 1025.6mb 42f 44f
7:36 11 13 mph 1025.6mb 42f 44f
7:30  -  mph - 42f -
7:24 10 14 mph 1025.3mb 42f 44f
7:18 9 14 mph 1025.4mb 42f 44f
7:12  -  mph - 42f -
7:06 9 10 mph 1025.4mb 42f 44f
7:00 8 9 mph 1025.6mb 42f 44f
6:54 6 7 mph 1025.7mb 42f 44f
6:48 6 8 mph 1025.7mb 42f 44f
6:42 7 8 mph 1025.7mb 42f 44f
6:36 8 10 mph 1025.7mb 42f 44f
6:30 6 7 mph 1025.8mb 42f 43f
6:24 6 7 mph 1025.8mb 42f 43f
6:18 7 8 mph 1025.8mb 42f 43f
6:12 8 10 mph 1025.8mb 42f 43f
6:06 8 10 mph 1025.7mb 42f 43f
6:00 9 10 mph 1025.7mb 42f 43f
5:54 9 10 mph 1025.7mb 42f 43f
5:48 9 10 mph 1025.7mb 42f 43f
5:42 8 13 mph 1025.7mb 42f 43f
5:36 11 13 mph 1025.5mb 42f 43f
5:30 10 11 mph 1025.6mb 42f 43f
5:24 9 10 mph 1025.6mb 42f 42f
5:18 9 13 mph 1025.7mb 42f 43f
5:12 11 13 mph 1025.7mb 42f 42f
5:06 7 8 mph 1025.9mb 42f 43f
5:00 5 7 mph 1026mb 42f 42f
4:54 5 6 mph 1026mb 42f 42f
4:48 6 7 mph 1026mb 42f 42f
4:42 6 7 mph 1026.1mb 42f 42f
4:36 6 9 mph 1026.2mb 42f 42f
4:24 7 9 mph 1025.7mb 42f 42f
4:18 8 9 mph 1025.7mb 42f 42f
4:12 8 10 mph 1025.7mb 42f 42f
4:06 9 10 mph 1025.7mb 42f 42f
4:00 8 9 mph 1025.8mb 42f 42f
3:54 8 9 mph 1025.7mb 42f 42f
3:48 7 9 mph 1025.8mb 42f 42f
3:42 8 9 mph 1025.8mb 42f 42f
3:36 6 7 mph 1025.8mb 42f 42f
3:30 6 7 mph 1025.8mb 42f 42f
3:24 7 9 mph 1025.7mb 42f 42f
3:18 9 10 mph 1025.6mb 42f 42f
3:12 10 11 mph 1025.5mb 42f 42f
3:06 9 13 mph 1025.4mb 42f 42f
3:00 10 11 mph 1025.4mb 42f 42f
2:54 9 11 mph 1025.4mb 42f 42f
2:48 10 11 mph 1025.4mb 42f 42f
2:42 9 10 mph 1025.5mb 42f 42f
2:36 7 9 mph 1025.6mb 42f 42f
2:30 7 8 mph 1025.5mb 42f 42f
2:24 5 9 mph 1025.6mb 42f 42f
2:18 8 10 mph 1025.5mb 42f 42f
2:12 8 11 mph 1025.4mb 42f 42f
2:06 9 13 mph 1025.4mb 42f 42f
2:00  -  mph - 42f -
1:54 10 13 mph 1025.5mb 42f 42f
1:48 9 11 mph 1025.5mb 42f 42f
1:42 10 13 mph 1025.6mb 42f 42f
1:36 11 13 mph 1025.6mb 42f 42f
1:30 11 13 mph 1025.6mb 42f 42f
1:24 10 13 mph 1025.7mb 42f 42f
1:18 9 11 mph 1025.8mb 42f 42f
1:12 8 10 mph 1026.2mb 42f 42f
1:06 8 9 mph 1026.5mb 42f 42f
12:36 7 8 mph 1026.9mb 42f 41f
12:30 6 7 mph 1026.9mb 42f 42f
12:12 6 7 mph 1026.8mb 42f 42f
12:06 6 8 mph 1026.8mb 42f 42f
12:00 6 8 mph 1026.8mb 42f 41f
11:54 6 8 mph 1026.9mb 42f 41f
11:48 7 8 mph 1026.9mb 42f 41f
11:42 8 9 mph 1026.9mb 42f 41f
11:36 8 10 mph 1026.8mb 42f 41f
11:30 9 11 mph 1026.9mb 42f 40f
11:24 9 11 mph 1026.9mb 42f 40f
11:18 9 11 mph 1026.9mb 42f 39f
11:12 9 11 mph 1027mb 42f 39f
11:06 10 13 mph 1027.1mb 42f 39f
11:00 10 13 mph 1027.2mb 42f 39f
10:54 11 13 mph 1027.3mb 42f 39f
10:48 11 13 mph 1027.4mb 42f 39f
10:42 10 13 mph 1027.7mb 42f 38f
10:36 10 13 mph 1027.8mb 42f 38f
10:30 11 14 mph 1027.9mb 42f 38f
10:24 10 14 mph 1027.9mb 42f 38f
10:18 11 14 mph 1028mb 42f 38f
10:12 9 11 mph 1028.1mb 42f 38f
10:06 9 11 mph 1028.2mb 42f 38f
10:00 9 13 mph 1028.2mb 42f 37f
9:54 9 11 mph 1028.3mb 42f 37f
9:48 9 13 mph 1028.3mb 42f 37f
9:42 10 13 mph 1028.2mb 42f 37f
9:36 9 11 mph 1028.3mb 42f 37f
9:30 10 14 mph 1028.4mb 42f 36f
9:24 10 13 mph 1028.4mb 42f 36f
9:18 10 13 mph 1028.4mb 42f 36f
9:12 9 11 mph 1028.4mb 42f 36f
9:06 10 13 mph 1028.2mb 42f 35f
9:00 10 14 mph 1028.1mb 42f 35f
8:54 11 14 mph 1028.1mb 42f 35f
8:48 11 15 mph 1028.1mb 42f 35f
8:42 13 16 mph 1028mb 42f 35f
8:36 14 15 mph 1028.1mb 42f 35f
8:30 13 16 mph 1028.2mb 42f 35f
8:24 13 17 mph 1028.1mb 42f 35f
8:18 13 16 mph 1028.1mb 42f 36f
8:12 13 15 mph 1028mb 42f 35f
8:06 14 17 mph 1027.9mb 42f 35f
8:00 14 17 mph 1027.8mb 42f 35f
7:54 14 16 mph 1027.7mb 42f 35f
7:48 13 15 mph 1027.7mb 42f 35f
7:42 14 17 mph 1027.7mb 42f 35f
7:36 13 16 mph 1027.9mb 42f 35f
7:30 14 16 mph 1028mb 42f 35f
7:24 13 15 mph 1028mb 42f 35f
7:18 13 16 mph 1027.9mb 42f 35f
7:12 14 16 mph 1027.8mb 42f 35f
7:06 13 16 mph 1027.9mb 42f 35f
7:00 13 15 mph 1027.9mb 42f 36f
6:54 15 17 mph 1027.8mb 42f 35f
6:48 11 16 mph 1027.9mb 42f 36f
6:42 14 17 mph 1027.9mb 42f 36f
6:36 14 17 mph 1027.9mb 42f 36f
6:30 13 16 mph 1027.9mb 42f 36f
6:24 13 15 mph 1027.9mb 42f 36f
6:18 13 15 mph 1027.9mb 42f 36f
6:12 13 15 mph 1027.8mb 42f 36f
6:06 10 15 mph 1027.8mb 42f 36f
6:00 10 13 mph 1027.8mb 42f 36f
5:54  -  mph - 42f -
5:48 11 14 mph 1027.7mb 42f 36f
5:42 9 15 mph 1027.7mb 42f 36f
5:36 10 14 mph 1027.5mb 42f 36f
5:30 8 10 mph 1027.5mb 42f 35f
5:24 9 10 mph 1027.5mb 42f 35f
5:18 8 10 mph 1027.3mb 42f 35f
5:12 7 9 mph 1027.3mb 42f 35f
5:06 7 9 mph 1027.3mb 42f 35f
5:00 7 9 mph 1027.3mb 42f 35f
4:54 6 7 mph 1027.2mb 42f 35f
4:48 6 8 mph 1027.2mb 42f 35f
4:42 7 8 mph 1027.1mb 42f 34f
4:36 6 8 mph 1027mb 42f 34f
4:30 6 8 mph 1027mb 42f 34f
4:24 7 9 mph 1026.9mb 42f 35f
4:18 6 8 mph 1026.9mb 42f 35f
4:12 7 9 mph 1027mb 42f 35f
4:06 7 8 mph 1026.9mb 42f 35f
4:00 7 8 mph 1027mb 42f 35f
3:54 6
mph
1027mb 42f 35f
3:36 8 10 mph 1026.9mb 42f 35f
3:30 9 10 mph 1026.8mb 42f 35f
3:24 9 11 mph 1027mb 42f 35f
3:06 10 14 mph 1027mb 42f 35f
3:00 10 13 mph 1027mb 42f 36f
2:54 11 14 mph 1027.1mb 42f 36f
2:48 11 14 mph 1027.2mb 42f 35f
2:42 11 14 mph 1027.2mb 42f 35f
2:36 10 14 mph 1027.2mb 42f 35f
2:30 13 15 mph 1027.2mb 42f 36f
2:24 10 14 mph 1027.2mb 42f 35f
2:18 9 13 mph 1027.3mb 42f 35f
2:12 8 14 mph 1027.3mb 42f 35f
2:06 10 13 mph 1027.2mb 42f 35f
2:00 9 10 mph 1027.2mb 42f 35f
1:54 8 10 mph 1027.2mb 42f 35f
1:48 8 10 mph 1027.2mb 42f 35f
1:42 9 11 mph 1027.2mb 42f 35f
1:36 9 11 mph 1027.1mb 42f 35f
1:30 8 13 mph 1027.2mb 42f 35f
1:24 8 11 mph 1027.3mb 42f 35f
1:18 9 11 mph 1027.2mb 42f 35f
1:12 8 10 mph 1027.2mb 42f 35f
1:06 8 11 mph 1027.2mb 42f 36f
1:00 11 14 mph 1027.1mb 42f 36f
12:54 13 15 mph 1027mb 42f 36f
12:48 11 15 mph 1027mb 42f 36f
12:42 13 15 mph 1026.9mb 42f 35f
12:36 13 15 mph 1026.9mb 42f 35f
12:30 13 15 mph 1027mb 42f 35f
12:24 13 15 mph 1027mb 42f 35f
12:18 13 15 mph 1027mb 42f 35f
12:12 14 16 mph 1027mb 42f 36f
12:06 15 17 mph 1026.9mb 42f 36f
12:00 15 17 mph 1027mb 42f 36f
dom 12/21 11:54 13 15 mph 1027mb 42f 36f
11:48 14 16 mph 1027.1mb 42f 36f
11:42 11 15 mph 1027.1mb 42f 36f
11:36 13 15 mph 1027.1mb 42f 36f
11:30 13 16 mph 1027.2mb 42f 36f
11:24 11 14 mph 1027.2mb 42f 36f
11:18 13 15 mph 1027.3mb 42f 36f
11:12 13 16 mph 1027.3mb 42f 36f
11:06 11 16 mph 1027.2mb 42f 36f
11:00 13 15 mph 1027.3mb 42f 36f
10:54 13 15 mph 1027.3mb 42f 36f
10:48 11 15 mph 1027.3mb 42f 36f
10:42 13 17 mph 1027.3mb 42f 36f
10:36 14 16 mph 1027.3mb 42f 36f
10:30 13 15 mph 1027.4mb 42f 36f
10:24 11 15 mph 1027.4mb 42f 36f
10:18 10 15 mph 1027.4mb 42f 36f
10:12 11 14 mph 1027.3mb 42f 36f
10:06 10 13 mph 1027.4mb 42f 36f
10:00 7 11 mph 1027.4mb 42f 36f
9:54 7 10 mph 1027.4mb 42f 36f
9:48 8 10 mph 1027.3mb 42f 36f
9:42 8 10 mph 1027.2mb 42f 36f
9:36 7 9 mph 1027.1mb 42f 36f
9:30 8 11 mph 1027.1mb 42f 36f
9:24 11 14 mph 1027.1mb 42f 36f
9:18 8 11 mph 1027mb 42f 35f
9:12 10 13 mph 1026.9mb 42f 35f
9:06 9 13 mph 1026.9mb 42f 35f
9:00 10 14 mph 1026.9mb 42f 35f
8:54 8 10 mph 1026.9mb 42f 35f
8:48 9 13 mph 1026.9mb 42f 35f
8:42 8 11 mph 1026.9mb 42f 35f
8:36 9 15 mph 1026.9mb 42f 35f
8:30 9 11 mph 1026.9mb 42f 35f
8:24 9 14 mph 1026.9mb 42f 35f
8:12 13 15 mph 1026.8mb 42f 35f
8:06 11 14 mph 1026.8mb 42f 35f
8:00 8 16 mph 1026.8mb 42f 35f
7:54 14 16 mph 1026.7mb 42f 35f
7:48 14 16 mph 1026.7mb 42f 35f
7:42 13 16 mph 1026.7mb 42f 35f
7:36 14 15 mph 1026.7mb 42f 35f
7:30 13 15 mph 1026.7mb 42f 35f
7:24 10 16 mph 1026.7mb 42f 35f
7:18 14 16 mph 1026.7mb 42f 35f
7:12 14 16 mph 1026.7mb 42f 35f
7:06 15 18 mph 1026.6mb 42f 35f
7:00 14 17 mph 1026.6mb 42f 35f
6:54 14 17 mph 1026.5mb 42f 35f
6:48 13 15 mph 1026.6mb 42f 35f
6:42 14 16 mph 1026.6mb 42f 35f
6:36 11 16 mph 1026.6mb 42f 35f
6:30 14 17 mph 1026.5mb 42f 35f
6:24 14 17 mph 1026.3mb 42f 35f
6:18 15 20 mph 1026.2mb 42f 35f
6:12 14 17 mph 1026.2mb 42f 35f
6:06 13 17 mph 1026.1mb 42f 35f
6:00 14 17 mph 1026.1mb 42f 35f
5:54 15 17 mph 1026mb 42f 35f
5:48 14 16 mph 1026.1mb 42f 35f
5:42 14 17 mph 1026mb 42f 35f
5:36 14 16 mph 1026mb 42f 35f
5:30 13 15 mph 1026mb 42f 35f
5:24 13 15 mph 1026.1mb 42f 35f
5:18 13 15 mph 1026mb 42f 35f
5:12 13 16 mph 1025.9mb 42f 35f
5:06 14 17 mph 1025.8mb 42f 35f
5:00 15 18 mph 1025.7mb 42f 35f
4:54 15 18 mph 1025.7mb 42f 35f
4:48 14 17 mph 1025.7mb 42f 35f
4:42 15 17 mph 1025.6mb 42f 35f
4:36 14 20 mph 1025.5mb 42f 35f
4:30 16 18 mph 1025.5mb 42f 35f
4:24 14 16 mph 1025.4mb 42f 35f
4:18 13 17 mph 1025.3mb 42f 35f
4:12 14 16 mph 1025.3mb 42f 35f
4:06 14 16 mph 1025.3mb 42f 34f
4:00 14 16 mph 1025.3mb 42f 35f
3:54 13 16 mph 1025.4mb 42f 35f
3:48 14 15 mph 1025.3mb 42f 35f
3:42 11 15 mph 1025.2mb 42f 35f
3:36 14 16 mph 1025.2mb 42f 35f
3:30 14 17 mph 1025.1mb 42f 35f
3:24 15 17 mph 1025.1mb 42f 35f
3:18 14 17 mph 1025mb 42f 35f
3:12 15 17 mph 1025mb 42f 35f
3:06 14 17 mph 1025.1mb 42f 34f
3:00 16 17 mph 1025mb 42f 34f
2:54 14 17 mph 1025.1mb 42f 35f
2:48 15 17 mph 1025mb 43f 35f
2:42 15 17 mph 1025.1mb 43f 34f
2:36 15 18 mph 1025.1mb 43f 34f
2:30 15 17 mph 1025mb 43f 34f
2:24 14 16 mph 1025mb 43f 34f
2:18 15 17 mph 1024.9mb 43f 34f
2:12 14 16 mph 1025mb 43f 34f
2:06 13 16 mph 1025mb 43f 34f
2:00 14 17 mph 1024.9mb 43f 34f
1:54 13 16 mph 1024.9mb 43f 34f
1:48 14 17 mph 1024.8mb 43f 34f
1:42 15 18 mph 1024.7mb 43f 34f
1:36 13 16 mph 1024.7mb 43f 34f
1:30 14 17 mph 1024.6mb 43f 34f
1:24 14 18 mph 1024.6mb 43f 34f
1:18 14 20 mph 1024.6mb 43f 34f
1:12 15 17 mph 1024.6mb 43f 34f
1:06 16 18 mph 1024.6mb 43f 34f
1:00 13 17 mph 1024.6mb 43f 34f
12:54 13 17 mph 1024.4mb 43f 34f
12:48 15 17 mph 1024.4mb 43f 34f
12:42 14 18 mph 1024.5mb 43f 34f
12:36 13 16 mph 1024.5mb 43f 34f
12:30 13 16 mph 1024.6mb 43f 34f
12:24 13 16 mph 1024.5mb 43f 34f
12:18 13 16 mph 1024.5mb 43f 34f
12:12 15 18 mph 1024.6mb 43f 34f
12:06 15 17 mph 1024.6mb 43f 34f
12:00 14 18 mph 1024.6mb 43f 34f
11:54 15 17 mph 1024.7mb 43f 34f
11:48 14 17 mph 1024.8mb 43f 34f
11:42 13 18 mph 1024.9mb 43f 34f
11:36 14 17 mph 1024.9mb 43f 34f
11:30 14 17 mph 1025mb 43f 34f
11:24 15 17 mph 1025mb 43f 34f
11:18 16 18 mph 1025.1mb 43f 34f
11:12 14 16 mph 1025.2mb 43f 34f
11:06 14 17 mph 1025.2mb 43f 34f
11:00 14 17 mph 1025.3mb 43f 34f
10:54 17 20 mph 1025.4mb 43f 34f
10:48 14 18 mph 1025.5mb 43f 34f
10:42 14 17 mph 1025.6mb 43f 35f
10:36 15 17 mph 1025.6mb 43f 34f
10:30 14 17 mph 1025.7mb 43f 35f
10:24 14 17 mph 1025.7mb 43f 35f
10:18 15 17 mph 1025.7mb 43f 35f
10:12 15 17 mph 1025.7mb 43f 35f
10:06 14 17 mph 1025.8mb 43f 35f
10:00 15 18 mph 1025.7mb 43f 35f
9:54 15 17 mph 1025.8mb 43f 35f